Time;durP1;ratioP1;P1;durP2;ratioP2;P2;SDS_P1;SDS_P2;PMS_P1;PMS_P2;Temp;Humidity;BMP_temperature;BMP_pressure;BME280_temperature;BME280_humidity;BME280_pressure;Samples;Min_cycle;Max_cycle;Signal;HPM_P1;HPM_P2
2022/05/25 00:00:22;;;;;;;8.93;6.05;;;11.90;99.90;;;;;;5093864;28;20442;-68
2022/05/25 00:02:48;;;;;;;6.47;4.70;;;11.90;99.90;;;;;;5094230;28;20047;-67
2022/05/25 00:05:15;;;;;;;7.25;5.72;;;11.90;99.90;;;;;;5093933;28;20062;-67
2022/05/25 00:07:40;;;;;;;7.45;4.60;;;11.90;99.90;;;;;;5094338;28;20044;-67
2022/05/25 00:10:06;;;;;;;7.70;5.47;;;11.90;99.90;;;;;;5093780;28;20032;-68
2022/05/25 00:12:32;;;;;;;5.28;4.78;;;11.90;99.90;;;;;;5094159;28;20052;-67
2022/05/25 00:14:58;;;;;;;6.05;5.30;;;11.80;99.90;;;;;;5093882;28;20048;-68
2022/05/25 00:17:23;;;;;;;8.85;5.55;;;11.80;99.90;;;;;;5093939;28;20043;-67
2022/05/25 00:20:01;;;;;;;6.90;6.05;;;11.80;99.90;;;;;;5093370;28;20056;-67
2022/05/25 00:22:37;;;;;;;10.65;5.65;;;11.70;99.90;;;;;;5094006;28;20040;-68
2022/05/25 00:25:03;;;;;;;6.47;5.70;;;11.70;99.90;;;;;;5093727;28;20488;-68
2022/05/25 00:27:29;;;;;;;6.25;5.65;;;11.70;99.90;;;;;;5093837;28;20043;-67
2022/05/25 00:29:54;;;;;;;7.40;5.47;;;11.70;99.90;;;;;;5093345;28;20040;-67
2022/05/25 00:32:22;;;;;;;6.43;5.40;;;11.70;99.90;;;;;;5093545;28;20079;-67
2022/05/25 00:34:47;;;;;;;5.95;5.38;;;11.70;99.90;;;;;;5093732;28;20044;-67
2022/05/25 00:37:13;;;;;;;7.78;5.03;;;11.70;99.90;;;;;;5093554;28;20067;-68
2022/05/25 00:39:40;;;;;;;6.38;5.03;;;11.80;99.90;;;;;;5093170;28;20408;-68
2022/05/25 00:42:06;;;;;;;6.60;5.22;;;11.70;99.90;;;;;;5093504;28;20056;-68
2022/05/25 00:44:32;;;;;;;5.38;4.88;;;11.60;99.90;;;;;;5093436;28;20725;-68
2022/05/25 00:46:58;;;;;;;6.93;5.25;;;11.70;99.90;;;;;;5093257;28;20039;-68
2022/05/25 00:49:33;;;;;;;5.90;5.18;;;11.60;99.90;;;;;;5093095;28;20165;-67
2022/05/25 00:52:02;;;;;;;7.85;5.15;;;11.70;99.90;;;;;;5093375;28;20040;-68
2022/05/25 00:54:35;;;;;;;5.82;5.15;;;11.60;99.90;;;;;;5093281;28;20081;-68
2022/05/25 00:57:09;;;;;;;7.03;5.78;;;11.50;99.90;;;;;;5093197;28;20036;-68
2022/05/25 00:59:50;;;;;;;5.57;5.07;;;11.40;99.90;;;;;;5092808;28;20085;-68
2022/05/25 01:02:15;;;;;;;5.25;4.55;;;11.40;99.90;;;;;;5092992;28;20632;-68
2022/05/25 01:04:41;;;;;;;5.45;4.60;;;11.40;99.90;;;;;;5093056;28;20084;-68
2022/05/25 01:07:33;;;;;;;5.78;5.20;;;11.40;99.90;;;;;;5092631;28;20050;-68
2022/05/25 01:10:04;;;;;;;5.63;4.95;;;11.30;99.90;;;;;;5092605;28;20520;-67
2022/05/25 01:12:55;;;;;;;7.78;5.45;;;11.40;99.90;;;;;;5093059;28;20044;-68
2022/05/25 01:15:33;;;;;;;5.60;5.00;;;11.30;99.90;;;;;;5092896;28;20044;-68
2022/05/25 01:18:18;;;;;;;7.13;4.70;;;11.30;99.90;;;;;;5092760;28;20534;-68
2022/05/25 01:21:18;;;;;;;6.90;5.65;;;11.20;99.90;;;;;;5092436;28;20093;-68
2022/05/25 01:23:50;;;;;;;6.18;5.53;;;11.20;99.90;;;;;;5047491;28;20488;-68
2022/05/25 01:26:31;;;;;;;7.43;5.32;;;11.10;99.90;;;;;;5092873;28;20036;-68
2022/05/25 01:29:02;;;;;;;9.20;6.07;;;11.10;99.90;;;;;;5092500;28;20055;-68
2022/05/25 01:31:44;;;;;;;7.75;5.32;;;11.10;99.90;;;;;;5092389;28;20538;-68
2022/05/25 01:34:25;;;;;;;7.35;5.85;;;11.10;99.90;;;;;;5092563;28;20067;-68
2022/05/25 01:37:04;;;;;;;6.40;5.60;;;11.10;99.90;;;;;;5092438;28;20047;-68
2022/05/25 01:39:32;;;;;;;8.02;6.30;;;11.00;99.90;;;;;;5092179;28;20081;-68
2022/05/25 01:42:09;;;;;;;8.00;6.35;;;11.00;99.90;;;;;;5092429;28;20043;-68
2022/05/25 01:44:40;;;;;;;6.22;5.63;;;11.00;99.90;;;;;;5092238;28;20511;-68
2022/05/25 01:47:11;;;;;;;6.43;5.82;;;11.00;99.90;;;;;;5092292;28;20157;-67
2022/05/25 01:49:47;;;;;;;8.40;6.72;;;10.90;99.90;;;;;;5091800;28;20072;-68
2022/05/25 01:52:17;;;;;;;10.30;6.30;;;11.00;99.90;;;;;;5092289;28;20043;-67
2022/05/25 01:54:53;;;;;;;6.63;5.97;;;11.00;99.90;;;;;;5092174;28;20043;-68
2022/05/25 01:57:24;;;;;;;13.65;7.07;;;11.00;99.90;;;;;;5091986;28;20044;-68
2022/05/25 01:59:49;;;;;;;8.07;7.15;;;10.90;99.90;;;;;;5091578;28;20385;-68
2022/05/25 02:05:04;;;;;;;7.35;6.60;;;10.90;99.90;;;;;;5091896;28;20043;-68
2022/05/25 02:07:58;;;;;;;13.13;7.35;;;10.90;99.90;;;;;;5091935;28;20036;-68
2022/05/25 02:10:37;;;;;;;11.35;7.70;;;10.90;99.90;;;;;;5091322;28;20086;-67
2022/05/25 02:13:21;;;;;;;8.43;7.63;;;10.90;99.90;;;;;;5091871;28;20052;-68
2022/05/25 02:16:04;;;;;;;8.57;7.03;;;10.90;99.90;;;;;;5091502;28;20535;-68
2022/05/25 02:18:53;;;;;;;8.88;7.82;;;10.90;99.90;;;;;;5091280;28;20036;-68
2022/05/25 02:21:39;;;;;;;8.40;7.50;;;10.80;99.90;;;;;;5091393;28;20038;-67
2022/05/25 02:24:12;;;;;;;12.35;9.25;;;10.80;99.90;;;;;;5080550;28;20492;-68
2022/05/25 02:27:03;;;;;;;8.50;6.97;;;10.80;99.90;;;;;;5091534;28;20078;-68
2022/05/25 02:29:46;;;;;;;8.88;7.97;;;10.80;99.90;;;;;;5091365;28;20404;-68
2022/05/25 02:32:26;;;;;;;9.73;8.18;;;10.70;99.90;;;;;;5091555;28;20148;-68
2022/05/25 02:34:56;;;;;;;9.35;8.32;;;10.70;99.90;;;;;;5091328;28;20583;-68
2022/05/25 02:37:25;;;;;;;10.40;8.07;;;10.60;99.90;;;;;;5091248;28;20549;-67
2022/05/25 02:39:53;;;;;;;9.15;8.25;;;10.60;99.90;;;;;;5091255;28;20032;-68
2022/05/25 02:42:19;;;;;;;10.80;8.20;;;10.60;99.90;;;;;;5091421;28;20044;-68
2022/05/25 02:44:46;;;;;;;9.25;8.32;;;10.70;99.90;;;;;;5091346;28;20420;-68
2022/05/25 02:47:11;;;;;;;11.00;8.48;;;10.60;99.90;;;;;;5091282;28;20032;-68
2022/05/25 02:49:37;;;;;;;9.95;8.93;;;10.60;99.90;;;;;;5090805;28;20052;-68
2022/05/25 02:52:05;;;;;;;12.23;8.35;;;10.60;99.90;;;;;;5091284;28;20047;-68
2022/05/25 02:54:30;;;;;;;13.48;9.10;;;10.60;99.90;;;;;;5091004;28;20035;-68
2022/05/25 02:56:56;;;;;;;12.23;10.02;;;10.50;99.90;;;;;;5091139;28;20040;-68
2022/05/25 02:59:21;;;;;;;10.55;8.48;;;10.60;99.90;;;;;;5090440;28;20036;-68
2022/05/25 03:01:47;;;;;;;10.18;9.18;;;10.60;99.90;;;;;;5091163;28;20055;-68
2022/05/25 03:04:13;;;;;;;16.90;9.65;;;10.60;99.90;;;;;;5090827;28;20043;-68
2022/05/25 03:06:38;;;;;;;10.50;8.63;;;10.60;99.90;;;;;;5090745;28;20054;-68
2022/05/25 03:09:04;;;;;;;10.27;9.15;;;10.60;99.90;;;;;;5090764;28;20394;-68
2022/05/25 03:11:29;;;;;;;11.85;9.85;;;10.60;99.90;;;;;;5090920;28;20470;-68
2022/05/25 03:13:55;;;;;;;14.05;10.25;;;10.60;99.90;;;;;;5090935;28;20115;-68
2022/05/25 03:16:22;;;;;;;12.30;9.88;;;10.60;99.90;;;;;;5090796;28;20161;-68
2022/05/25 03:18:49;;;;;;;14.02;10.75;;;10.50;99.90;;;;;;5090497;28;20036;-68
2022/05/25 03:21:15;;;;;;;12.15;10.30;;;10.60;99.90;;;;;;5088932;28;20036;-68
2022/05/25 03:23:40;;;;;;;11.23;9.63;;;10.50;99.90;;;;;;5087737;28;20040;-68
2022/05/25 03:26:06;;;;;;;13.82;10.60;;;10.60;99.90;;;;;;5088184;28;20040;-68
2022/05/25 03:28:32;;;;;;;11.27;9.68;;;10.50;99.90;;;;;;5090580;28;20105;-68
2022/05/25 03:30:57;;;;;;;15.48;10.98;;;10.60;99.90;;;;;;5091484;28;20484;-68
2022/05/25 03:33:23;;;;;;;13.10;10.65;;;10.50;99.90;;;;;;5094228;28;20059;-68
2022/05/25 03:35:49;;;;;;;14.85;10.70;;;10.50;99.90;;;;;;5093292;28;20040;-68
2022/05/25 03:38:14;;;;;;;14.05;9.68;;;10.50;99.90;;;;;;5094908;28;20032;-68
2022/05/25 03:40:40;;;;;;;13.43;9.55;;;10.50;99.90;;;;;;5094258;28;20498;-68
2022/05/25 03:43:07;;;;;;;15.88;10.27;;;10.60;99.90;;;;;;5094796;28;20032;-68
2022/05/25 03:45:34;;;;;;;13.50;10.82;;;10.50;99.90;;;;;;5094635;28;20407;-68
2022/05/25 03:48:00;;;;;;;13.60;11.05;;;10.60;99.90;;;;;;5094473;28;20488;-68
2022/05/25 03:50:25;;;;;;;13.27;10.90;;;10.60;99.90;;;;;;5094010;28;20036;-68
2022/05/25 03:52:51;;;;;;;13.75;11.60;;;10.50;99.90;;;;;;5094589;28;20124;-67
2022/05/25 03:55:17;;;;;;;15.27;11.93;;;10.60;99.90;;;;;;5094358;28;20086;-68
2022/05/25 03:57:42;;;;;;;19.77;11.75;;;10.50;99.90;;;;;;5094444;28;20051;-68
2022/05/25 04:00:09;;;;;;;16.83;11.57;;;10.60;99.90;;;;;;5093833;28;20040;-68
2022/05/25 04:02:34;;;;;;;16.35;12.40;;;10.70;99.90;;;;;;5094504;28;20419;-68
2022/05/25 04:05:09;;;;;;;16.30;13.13;;;10.60;99.90;;;;;;5094069;28;20039;-68
2022/05/25 04:07:46;;;;;;;15.27;12.23;;;10.70;99.90;;;;;;5094290;28;20040;-68
2022/05/25 04:10:17;;;;;;;16.33;12.05;;;10.80;99.90;;;;;;5094068;28;20140;-68
2022/05/25 04:12:43;;;;;;;14.10;11.45;;;10.80;99.90;;;;;;5094211;28;20080;-68
2022/05/25 04:15:12;;;;;;;14.32;12.20;;;10.90;99.90;;;;;;5093873;28;20469;-68
2022/05/25 04:17:38;;;;;;;15.70;11.35;;;11.10;99.90;;;;;;5094168;28;20104;-68
2022/05/25 04:20:05;;;;;;;15.27;12.30;;;11.00;99.90;;;;;;5093643;28;20040;-68
2022/05/25 04:22:32;;;;;;;17.35;12.70;;;11.20;99.90;;;;;;5093908;28;20036;-68
2022/05/25 04:24:59;;;;;;;15.80;12.18;;;11.20;99.90;;;;;;5093876;28;20044;-68
2022/05/25 04:27:25;;;;;;;15.65;12.45;;;11.30;99.90;;;;;;5093676;28;20473;-68
2022/05/25 04:29:51;;;;;;;18.50;12.65;;;11.30;99.90;;;;;;5093273;28;20093;-68
2022/05/25 04:32:17;;;;;;;17.77;12.63;;;11.40;99.90;;;;;;5093817;28;20450;-68
2022/05/25 04:34:43;;;;;;;17.88;13.63;;;11.40;99.90;;;;;;5093652;28;20040;-68
2022/05/25 04:39:54;;;;;;;16.38;12.88;;;11.60;99.90;;;;;;5093201;28;20075;-68
2022/05/25 04:42:20;;;;;;;14.68;12.27;;;11.80;99.90;;;;;;5092626;28;20410;-68
2022/05/25 04:44:46;;;;;;;17.38;12.50;;;11.80;99.90;;;;;;5093618;28;20097;-68
2022/05/25 04:47:13;;;;;;;17.25;12.82;;;12.00;99.90;;;;;;5093703;28;20052;-68
2022/05/25 04:49:43;;;;;;;14.48;11.38;;;12.10;99.90;;;;;;5093050;28;20203;-68
2022/05/25 04:52:09;;;;;;;15.35;12.20;;;12.20;99.90;;;;;;5093294;28;20492;-68
2022/05/25 04:54:35;;;;;;;16.80;12.38;;;12.40;99.90;;;;;;5093232;28;20047;-68
2022/05/25 04:59:45;;;;;;;17.38;11.98;;;12.60;99.90;;;;;;5092831;28;20044;-68
2022/05/25 05:02:11;;;;;;;16.17;11.20;;;12.70;99.90;;;;;;5093123;28;20036;-68
2022/05/25 05:04:37;;;;;;;15.20;11.68;;;12.80;99.90;;;;;;5093048;28;20675;-68
2022/05/25 05:07:04;;;;;;;15.93;11.90;;;13.00;99.90;;;;;;5093046;28;20399;-68
2022/05/25 05:09:37;;;;;;;15.90;12.00;;;13.00;99.90;;;;;;5092470;28;20523;-68
2022/05/25 05:12:03;;;;;;;14.65;11.55;;;12.90;99.90;;;;;;5093121;28;20505;-68
2022/05/25 05:14:29;;;;;;;14.25;10.82;;;13.20;99.90;;;;;;5092946;28;20044;-68
2022/05/25 05:16:57;;;;;;;19.60;11.07;;;13.30;99.90;;;;;;5092779;28;20050;-68
2022/05/25 05:19:24;;;;;;;14.43;11.10;;;13.40;99.90;;;;;;5092585;28;20074;-68
2022/05/25 05:21:50;;;;;;;17.40;11.32;;;13.60;99.90;;;;;;5092717;28;20450;-68
2022/05/25 05:24:16;;;;;;;15.25;11.63;;;13.50;99.90;;;;;;5092841;28;20069;-68
2022/05/25 05:26:41;;;;;;;14.23;11.55;;;13.50;99.90;;;;;;5092760;28;20132;-68
2022/05/25 05:29:07;;;;;;;15.77;11.75;;;13.70;99.90;;;;;;5092196;28;20515;-68
2022/05/25 05:31:33;;;;;;;17.73;11.98;;;13.80;99.90;;;;;;5092486;28;20036;-68
2022/05/25 05:33:59;;;;;;;17.40;11.75;;;13.80;99.90;;;;;;5092449;28;20093;-68
2022/05/25 05:36:33;;;;;;;16.33;12.35;;;13.80;99.90;;;;;;5092228;28;20040;-69
2022/05/25 05:39:05;;;;;;;15.90;12.07;;;14.00;99.90;;;;;;5092075;28;20531;-68
2022/05/25 05:41:35;;;;;;;19.60;12.85;;;14.20;99.90;;;;;;5092243;28;20504;-68
2022/05/25 05:44:03;;;;;;;17.13;11.77;;;14.20;99.90;;;;;;5092392;28;20111;-68
2022/05/25 05:46:29;;;;;;;15.70;11.48;;;14.30;99.90;;;;;;5092169;28;20097;-68
2022/05/25 05:48:55;;;;;;;17.45;11.68;;;14.40;99.90;;;;;;5091804;28;20040;-68
2022/05/25 05:51:22;;;;;;;17.50;11.98;;;14.40;99.90;;;;;;5090933;28;20838;-69
2022/05/25 05:53:48;;;;;;;18.58;12.48;;;14.40;99.90;;;;;;5091353;28;20508;-68
2022/05/25 05:56:15;;;;;;;19.25;11.85;;;14.40;99.90;;;;;;5091763;28;20081;-68
2022/05/25 05:58:41;;;;;;;17.50;12.35;;;14.50;99.90;;;;;;5091807;28;20111;-69
2022/05/25 06:01:07;;;;;;;20.73;11.93;;;14.50;99.90;;;;;;5091693;28;20089;-68
2022/05/25 06:03:32;;;;;;;19.63;13.32;;;14.70;99.90;;;;;;5091834;28;20043;-68
2022/05/25 06:05:58;;;;;;;16.40;12.45;;;14.80;99.90;;;;;;5091924;28;20496;-68
2022/05/25 06:08:23;;;;;;;24.70;12.40;;;14.70;99.90;;;;;;5091746;28;20123;-69
2022/05/25 06:10:49;;;;;;;21.00;12.43;;;14.90;99.90;;;;;;5091624;28;20049;-68
2022/05/25 06:13:16;;;;;;;25.05;12.40;;;14.90;99.90;;;;;;5091769;28;20036;-68
2022/05/25 06:21:16;;;;;;;22.70;12.55;;;15.00;99.90;;;;;;5091605;28;20044;-68
2022/05/25 06:23:41;;;;;;;22.27;11.38;;;15.10;99.90;;;;;;5091607;28;20039;-68
2022/05/25 06:26:07;;;;;;;23.70;12.65;;;15.10;99.90;;;;;;5091482;28;20044;-68
2022/05/25 06:28:33;;;;;;;19.58;12.93;;;15.20;99.90;;;;;;5091134;28;20385;-68
2022/05/25 06:30:59;;;;;;;22.17;12.32;;;15.30;99.90;;;;;;5091503;28;20042;-68
2022/05/25 06:33:24;;;;;;;18.10;11.68;;;15.40;99.90;;;;;;5091603;28;20039;-69
2022/05/25 06:35:50;;;;;;;18.15;12.38;;;15.30;99.90;;;;;;5091389;28;20032;-68
2022/05/25 06:38:16;;;;;;;20.80;11.60;;;15.30;99.90;;;;;;5091425;28;20105;-68
2022/05/25 06:40:41;;;;;;;27.00;12.50;;;15.30;99.90;;;;;;5091118;28;20070;-68
2022/05/25 06:43:07;;;;;;;21.48;11.85;;;15.40;99.90;;;;;;5091119;28;20135;-68
2022/05/25 06:45:32;;;;;;;18.95;11.45;;;15.50;99.90;;;;;;5091098;28;20048;-69
2022/05/25 06:47:58;;;;;;;22.05;12.82;;;15.50;99.90;;;;;;5091326;28;20039;-68
2022/05/25 06:50:25;;;;;;;21.20;12.63;;;15.40;99.90;;;;;;5090935;28;20077;-68
2022/05/25 06:52:51;;;;;;;19.23;12.60;;;15.60;99.90;;;;;;5091124;28;20075;-68
2022/05/25 06:55:17;;;;;;;23.42;12.77;;;15.60;99.90;;;;;;5090966;28;20689;-69
2022/05/25 06:57:42;;;;;;;20.33;12.45;;;15.70;99.90;;;;;;5090929;28;20039;-68
2022/05/25 07:00:09;;;;;;;19.65;12.10;;;15.70;99.90;;;;;;5090606;28;20423;-68
2022/05/25 07:02:34;;;;;;;19.88;11.30;;;15.70;99.90;;;;;;5091175;28;20044;-69
2022/05/25 07:05:00;;;;;;;18.70;11.32;;;15.80;99.90;;;;;;5090715;28;20112;-68
2022/05/25 07:07:26;;;;;;;17.98;10.52;;;15.80;99.90;;;;;;5090860;28;20044;-68
2022/05/25 07:09:51;;;;;;;20.02;10.68;;;15.80;99.90;;;;;;5090543;28;20046;-68
2022/05/25 07:12:17;;;;;;;15.73;10.15;;;16.10;99.90;;;;;;5090722;28;20048;-68
2022/05/25 07:14:43;;;;;;;18.00;10.23;;;16.20;99.90;;;;;;5090768;28;20036;-68
2022/05/25 07:17:08;;;;;;;17.80;10.52;;;16.20;99.90;;;;;;5090851;28;20096;-68
2022/05/25 07:19:34;;;;;;;21.08;9.57;;;16.30;99.90;;;;;;5090539;28;20043;-68
2022/05/25 07:22:00;;;;;;;14.38;8.93;;;16.30;99.90;;;;;;5090863;28;20028;-68
2022/05/25 07:24:25;;;;;;;17.60;9.60;;;16.40;99.90;;;;;;5090821;28;20039;-68
2022/05/25 07:26:51;;;;;;;10.30;8.48;;;16.30;99.90;;;;;;5090646;28;20093;-68
2022/05/25 07:29:17;;;;;;;16.55;8.98;;;16.20;99.90;;;;;;5090544;28;20102;-68
2022/05/25 07:31:51;;;;;;;12.45;9.10;;;16.20;99.90;;;;;;5090826;28;20078;-68
2022/05/25 07:34:25;;;;;;;11.60;7.55;;;16.40;99.90;;;;;;5090732;28;20051;-68
2022/05/25 07:37:00;;;;;;;17.45;8.23;;;16.50;99.90;;;;;;5090739;28;20048;-68
2022/05/25 07:39:29;;;;;;;13.07;7.85;;;16.30;99.90;;;;;;5090267;28;20058;-68
2022/05/25 07:41:58;;;;;;;11.40;7.10;;;16.30;99.90;;;;;;5090793;28;20032;-68
2022/05/25 07:44:28;;;;;;;15.50;7.32;;;16.50;99.90;;;;;;5090709;28;20083;-69
2022/05/25 07:46:54;;;;;;;11.55;6.88;;;16.60;99.90;;;;;;5090708;28;20048;-68
2022/05/25 07:49:22;;;;;;;9.48;6.50;;;16.60;99.90;;;;;;5090211;28;20086;-68
2022/05/25 07:51:47;;;;;;;10.82;6.55;;;16.60;99.90;;;;;;5090482;28;20044;-68
2022/05/25 07:54:14;;;;;;;10.10;6.50;;;16.70;99.90;;;;;;5090782;28;20127;-68
2022/05/25 07:56:40;;;;;;;10.25;7.43;;;16.70;99.90;;;;;;5090637;28;20079;-68
2022/05/25 07:59:08;;;;;;;10.98;6.85;;;16.70;99.90;;;;;;5090224;28;20098;-69
2022/05/25 08:07:18;;;;;;;9.77;5.78;;;17.00;99.90;;;;;;5090711;28;20281;-68
2022/05/25 08:09:44;;;;;;;10.02;6.13;;;17.00;99.90;;;;;;5088926;28;20443;-68
2022/05/25 08:12:11;;;;;;;10.52;5.55;;;16.90;99.90;;;;;;5090367;28;20122;-68
2022/05/25 08:14:37;;;;;;;9.10;6.10;;;17.10;99.90;;;;;;5090312;28;20035;-69
2022/05/25 08:17:04;;;;;;;9.13;6.20;;;17.20;99.90;;;;;;5090150;28;20123;-68
2022/05/25 08:19:30;;;;;;;9.77;5.80;;;17.10;99.90;;;;;;5092470;28;20043;-68
2022/05/25 08:21:56;;;;;;;8.98;5.32;;;17.10;99.90;;;;;;5094063;28;20561;-68
2022/05/25 08:24:21;;;;;;;7.15;5.03;;;17.30;99.90;;;;;;5093868;28;20093;-68
2022/05/25 08:26:47;;;;;;;6.90;5.40;;;17.40;99.90;;;;;;5093862;28;20463;-68
2022/05/25 08:29:12;;;;;;;9.60;5.32;;;17.60;99.90;;;;;;5093423;28;20096;-68
2022/05/25 08:31:38;;;;;;;7.60;5.30;;;17.60;99.90;;;;;;5093473;28;20044;-68
2022/05/25 08:34:05;;;;;;;8.95;4.63;;;17.50;99.90;;;;;;5093849;28;20161;-68
2022/05/25 08:36:31;;;;;;;5.65;4.28;;;17.60;99.90;;;;;;5093703;28;20463;-68
2022/05/25 08:38:58;;;;;;;8.27;3.92;;;17.60;99.90;;;;;;5093405;28;20028;-68
2022/05/25 08:41:28;;;;;;;7.38;4.53;;;17.60;99.90;;;;;;5093561;28;20040;-69
2022/05/25 08:43:55;;;;;;;9.18;5.30;;;17.60;99.90;;;;;;5093420;28;20118;-69
2022/05/25 08:46:23;;;;;;;6.53;4.88;;;17.40;99.90;;;;;;5093625;28;20047;-68
2022/05/25 08:48:50;;;;;;;8.98;5.60;;;17.70;99.90;;;;;;5093214;28;20047;-68
2022/05/25 08:51:22;;;;;;;8.73;5.07;;;17.80;99.90;;;;;;5093340;28;20028;-68
2022/05/25 08:53:49;;;;;;;8.70;4.80;;;17.90;99.90;;;;;;5093403;28;20047;-68
2022/05/25 08:56:52;;;;;;;8.43;4.82;;;17.70;99.90;;;;;;5093193;28;20051;-68
2022/05/25 08:59:30;;;;;;;7.25;4.38;;;17.60;99.90;;;;;;5092730;28;20489;-68
2022/05/25 09:02:11;;;;;;;8.32;4.07;;;17.80;99.90;;;;;;5093222;28;20028;-68
2022/05/25 09:04:46;;;;;;;5.17;4.00;;;17.80;99.90;;;;;;5093086;28;20032;-68
2022/05/25 09:07:34;;;;;;;7.93;3.90;;;18.00;99.90;;;;;;5093255;28;20467;-68
2022/05/25 09:10:00;;;;;;;7.38;4.35;;;18.00;99.90;;;;;;5084291;28;20721;-68
2022/05/25 09:12:47;;;;;;;7.45;4.75;;;18.00;99.90;;;;;;5093057;28;20040;-68
2022/05/25 09:15:23;;;;;;;6.00;3.40;;;17.90;99.90;;;;;;5092952;28;20079;-68
2022/05/25 09:18:10;;;;;;;6.13;3.75;;;17.90;99.90;;;;;;5093116;28;20044;-68
2022/05/25 09:20:42;;;;;;;6.97;3.92;;;17.90;99.90;;;;;;5092391;28;20111;-68
2022/05/25 09:23:09;;;;;;;6.80;3.83;;;17.80;99.90;;;;;;5092876;28;20044;-68
2022/05/25 09:25:36;;;;;;;6.65;3.78;;;17.90;99.90;;;;;;5092676;28;20440;-68
2022/05/25 09:28:07;;;;;;;6.68;3.80;;;18.00;99.90;;;;;;5092602;28;20077;-68
2022/05/25 09:30:37;;;;;;;4.90;3.53;;;18.10;99.90;;;;;;5092509;28;20036;-68
2022/05/25 09:33:13;;;;;;;7.10;4.18;;;17.90;99.90;;;;;;5092608;28;20101;-68
2022/05/25 09:35:43;;;;;;;8.43;4.35;;;17.90;99.90;;;;;;5092400;28;20076;-68
2022/05/25 09:38:14;;;;;;;6.30;4.32;;;17.80;99.90;;;;;;5092319;28;20032;-68
2022/05/25 09:40:45;;;;;;;7.38;4.47;;;17.90;99.90;;;;;;5092197;28;20454;-68
2022/05/25 09:43:18;;;;;;;5.80;4.47;;;17.80;99.90;;;;;;5092463;28;20078;-68
2022/05/25 09:45:49;;;;;;;8.77;5.18;;;17.90;99.90;;;;;;5092355;28;20492;-68
2022/05/25 09:48:27;;;;;;;5.95;4.65;;;17.80;99.90;;;;;;5092272;28;20086;-69
2022/05/25 09:51:20;;;;;;;6.03;4.88;;;18.00;99.90;;;;;;5092305;28;20051;-68
2022/05/25 09:54:14;;;;;;;6.57;3.65;;;18.10;99.90;;;;;;5092249;28;20036;-68
2022/05/25 09:56:49;;;;;;;8.70;3.88;;;18.10;99.90;;;;;;5090084;28;20186;-69
2022/05/25 09:59:23;;;;;;;4.95;3.53;;;18.10;99.90;;;;;;5091888;28;20089;-68
2022/05/25 10:01:49;;;;;;;6.50;4.05;;;18.10;99.90;;;;;;5092506;28;20036;-68
2022/05/25 10:04:33;;;;;;;5.53;3.47;;;18.20;99.90;;;;;;5092292;28;20125;-68
2022/05/25 10:06:58;;;;;;;4.65;3.33;;;18.20;99.90;;;;;;5092149;28;20048;-69
2022/05/25 10:09:28;;;;;;;6.22;3.40;;;18.20;99.90;;;;;;5091657;28;20032;-69
2022/05/25 10:11:59;;;;;;;5.20;3.50;;;18.30;99.90;;;;;;5092145;28;20054;-69
2022/05/25 10:14:33;;;;;;;8.30;3.70;;;18.10;99.90;;;;;;5091916;28;20107;-68
2022/05/25 10:17:11;;;;;;;6.47;4.07;;;18.20;99.90;;;;;;5091688;28;20097;-68
2022/05/25 10:20:20;;;;;;;5.75;3.47;;;18.50;99.90;;;;;;5091262;28;20085;-68
2022/05/25 10:22:48;;;;;;;3.92;2.90;;;18.50;99.90;;;;;;5028901;28;20049;-68
2022/05/25 10:25:29;;;;;;;6.50;3.47;;;18.50;99.90;;;;;;5028989;28;20041;-68
2022/05/25 10:27:57;;;;;;;4.93;3.10;;;18.40;99.90;;;;;;5028980;28;20117;-68
2022/05/25 10:36:47;;;;;;;6.45;3.42;;;18.40;99.90;;;;;;5028774;28;20528;-68
2022/05/25 10:39:45;;;;;;;5.72;3.90;;;18.20;99.90;;;;;;5028550;28;20053;-68
2022/05/25 10:42:28;;;;;;;7.05;3.38;;;17.90;99.90;;;;;;5028449;28;20033;-68
2022/05/25 10:45:20;;;;;;;4.13;3.13;;;17.90;99.90;;;;;;5028679;28;20042;-68
2022/05/25 10:48:23;;;;;;;6.15;3.55;;;17.60;99.90;;;;;;5028663;28;20076;-68
2022/05/25 10:50:55;;;;;;;5.72;3.75;;;17.40;99.90;;;;;;5028349;28;20108;-68
2022/05/25 10:53:36;;;;;;;6.22;3.40;;;17.30;99.90;;;;;;5028465;28;20057;-68
2022/05/25 10:56:19;;;;;;;4.82;3.78;;;17.30;99.90;;;;;;5028356;28;20118;-68
2022/05/25 10:59:01;;;;;;;4.68;4.10;;;17.40;99.90;;;;;;5054166;28;20044;-68
2022/05/25 11:01:52;;;;;;;4.50;4.07;;;17.50;99.90;;;;;;5090828;28;20119;-69
2022/05/25 11:04:32;;;;;;;6.88;4.38;;;17.70;99.90;;;;;;5091026;28;20047;-68
2022/05/25 11:07:18;;;;;;;6.80;4.40;;;17.90;99.90;;;;;;5091048;28;20048;-69
2022/05/25 11:09:59;;;;;;;5.85;4.47;;;18.00;99.90;;;;;;5090491;28;20051;-68
2022/05/25 11:12:37;;;;;;;5.25;4.53;;;18.20;99.90;;;;;;5091056;28;20044;-68
2022/05/25 11:15:25;;;;;;;5.72;4.68;;;18.20;99.90;;;;;;5091044;28;20032;-69
2022/05/25 11:18:21;;;;;;;7.72;3.90;;;18.40;99.90;;;;;;5090931;28;20071;-68
2022/05/25 11:20:47;;;;;;;8.25;3.90;;;18.40;99.90;;;;;;5063726;28;20067;-69
2022/05/25 11:23:50;;;;;;;7.45;4.25;;;18.60;99.90;;;;;;5091638;28;20048;-69
2022/05/25 11:26:44;;;;;;;8.65;4.70;;;18.60;99.90;;;;;;5091395;28;20580;-68
2022/05/25 11:29:43;;;;;;;6.13;5.40;;;18.60;99.90;;;;;;5090994;28;20044;-68
2022/05/25 11:32:44;;;;;;;7.53;5.60;;;18.60;99.90;;;;;;5091129;28;20414;-68
2022/05/25 11:35:21;;;;;;;7.28;5.25;;;18.60;99.90;;;;;;5090783;28;20044;-68
2022/05/25 11:38:17;;;;;;;6.20;5.60;;;18.80;99.90;;;;;;5090820;28;20052;-68
2022/05/25 11:41:02;;;;;;;7.57;4.90;;;18.70;99.90;;;;;;5090445;28;20048;-68
2022/05/25 11:43:46;;;;;;;7.13;4.93;;;18.70;99.90;;;;;;5090799;28;20040;-68
2022/05/25 11:46:32;;;;;;;6.95;4.38;;;18.70;99.90;;;;;;5090711;28;20043;-68
2022/05/25 11:49:35;;;;;;;5.80;4.20;;;18.60;99.90;;;;;;5090339;28;20048;-68
2022/05/25 11:52:19;;;;;;;7.90;4.00;;;18.50;99.90;;;;;;5092221;28;20040;-68
2022/05/25 11:55:08;;;;;;;7.20;4.03;;;18.60;99.90;;;;;;5094430;28;20119;-68
2022/05/25 11:57:56;;;;;;;9.30;5.07;;;18.70;99.90;;;;;;5094399;28;20044;-69
2022/05/25 12:00:40;;;;;;;8.27;4.55;;;18.60;99.90;;;;;;5093947;28;20076;-68
2022/05/25 12:03:22;;;;;;;12.13;6.03;;;18.40;99.90;;;;;;5094489;28;20028;-68
2022/05/25 12:06:25;;;;;;;9.93;5.95;;;18.30;99.90;;;;;;5094321;28;20136;-68
2022/05/25 12:09:03;;;;;;;10.27;4.95;;;18.30;99.90;;;;;;5093981;28;20044;-68
2022/05/25 12:11:40;;;;;;;9.40;4.43;;;18.20;99.90;;;;;;5092971;28;20529;-67
2022/05/25 12:14:23;;;;;;;8.48;4.47;;;18.30;99.90;;;;;;5094082;28;20036;-68
2022/05/25 12:16:51;;;;;;;6.07;4.70;;;18.20;99.90;;;;;;5094201;28;20493;-67
2022/05/25 12:19:27;;;;;;;5.72;4.35;;;18.20;99.90;;;;;;5093749;28;20048;-68
2022/05/25 12:22:02;;;;;;;6.25;3.67;;;18.20;99.90;;;;;;5094039;28;20064;-68
2022/05/25 12:24:48;;;;;;;6.28;3.90;;;18.20;99.90;;;;;;5093892;28;20051;-68
2022/05/25 12:27:21;;;;;;;8.43;3.90;;;18.30;99.90;;;;;;5093842;28;20508;-68
2022/05/25 12:30:07;;;;;;;8.20;4.10;;;18.30;99.90;;;;;;5093549;28;20040;-68
2022/05/25 12:32:35;;;;;;;5.18;4.15;;;18.20;99.90;;;;;;5093809;28;20040;-68
2022/05/25 12:35:00;;;;;;;6.38;4.18;;;18.20;99.90;;;;;;5093662;28;20040;-68
2022/05/25 12:37:30;;;;;;;5.85;4.40;;;18.20;99.90;;;;;;5093436;28;20060;-68
2022/05/25 12:40:05;;;;;;;7.32;4.20;;;18.20;99.90;;;;;;5093175;28;20543;-68
2022/05/25 12:42:33;;;;;;;7.53;4.72;;;18.20;99.90;;;;;;5093504;28;20511;-68
2022/05/25 12:51:07;;;;;;;7.75;4.63;;;18.20;99.90;;;;;;5093369;28;20416;-68
2022/05/25 12:53:46;;;;;;;4.90;3.85;;;18.30;99.90;;;;;;5093369;28;20047;-68
2022/05/25 12:56:34;;;;;;;6.85;3.63;;;18.40;99.90;;;;;;5093129;28;20439;-68
2022/05/25 12:59:25;;;;;;;6.90;3.40;;;18.40;99.90;;;;;;5093088;28;20445;-68
2022/05/25 13:02:18;;;;;;;4.82;3.20;;;18.60;99.90;;;;;;5084580;28;20048;-68
2022/05/25 13:04:52;;;;;;;5.20;2.55;;;18.60;99.90;;;;;;5092660;28;20039;-68
2022/05/25 13:07:22;;;;;;;5.95;2.50;;;18.70;99.90;;;;;;5093219;28;20043;-68
2022/05/25 13:09:49;;;;;;;5.97;2.47;;;18.70;99.90;;;;;;5092768;28;20076;-68
2022/05/25 13:12:39;;;;;;;4.65;2.20;;;18.60;99.90;;;;;;5093078;28;20036;-68
2022/05/25 13:15:20;;;;;;;7.32;2.25;;;18.80;99.90;;;;;;5093223;28;20044;-68
2022/05/25 13:17:50;;;;;;;8.63;1.73;;;18.90;99.90;;;;;;5092959;28;20040;-68
2022/05/25 13:20:48;;;;;;;9.65;1.77;;;18.90;99.90;;;;;;5092581;28;20032;-67
2022/05/25 13:23:51;;;;;;;3.67;1.50;;;19.10;99.90;;;;;;5092562;28;20040;-68
2022/05/25 13:26:50;;;;;;;6.30;1.30;;;19.10;99.90;;;;;;5092618;28;20125;-68
2022/05/25 13:29:31;;;;;;;3.97;0.95;;;19.10;99.90;;;;;;5050459;28;20573;-68
2022/05/25 13:32:04;;;;;;;2.47;1.20;;;19.10;99.90;;;;;;5092798;28;20381;-68
2022/05/25 13:34:32;;;;;;;6.85;1.67;;;19.30;99.90;;;;;;5092620;28;20040;-68
2022/05/25 13:37:04;;;;;;;6.03;1.30;;;19.10;99.90;;;;;;5092443;28;20067;-68
2022/05/25 13:39:30;;;;;;;3.47;1.25;;;19.10;99.90;;;;;;5092118;28;20093;-69